Terminal Aerodrome Forecast
Issued by NWS Paducah, KY

Home | Current Version | Previous Version | Text Only | Print | Product List | Glossary On
Versions: 1 2 3 4 5 6 7 8 9 10 11 12 13 14 15 16 17 18 19 20 21 22 23
000
FTUS43 KPAH 031444 AAB
TAFEVV
TAF AMD
KEVV 031444Z 0315/0412 16006KT P6SM OVC011
      TEMPO 0315/0318 4SM -SHRA BR OVC008
     FM031800 19009KT 4SM -SHRA OVC006
     FM032000 21012G21KT 5SM -RA BR OVC005
     FM040000 23008KT 3SM -RA BR OVC004
     FM040600 32010KT 2SM -RA BR OVC003
     FM041100 35010G17KT 3SM -SN BR OVC003=

USA.gov is the U.S. government's official web portal to all federal, state and local government web resources and services.